sensor_id;sensor_type;location;lat;lon;timestamp;pressure;altitude;pressure_sealevel;temperature;humidity
7335;BME280;3708;42.632;23.378;2023-02-11T00:00:15;95914.59;;;1.25;44.48
7335;BME280;3708;42.632;23.378;2023-02-11T00:02:42;95917.25;;;1.18;43.36
7335;BME280;3708;42.632;23.378;2023-02-11T00:05:09;95920.31;;;0.79;44.93
7335;BME280;3708;42.632;23.378;2023-02-11T00:07:36;95909.19;;;0.97;44.25
7335;BME280;3708;42.632;23.378;2023-02-11T00:10:06;95912.19;;;1.23;43.71
7335;BME280;3708;42.632;23.378;2023-02-11T00:12:33;95915.41;;;1.07;44.15
7335;BME280;3708;42.632;23.378;2023-02-11T00:14:59;95923.91;;;0.42;45.01
7335;BME280;3708;42.632;23.378;2023-02-11T00:17:26;95915.91;;;0.68;44.41
7335;BME280;3708;42.632;23.378;2023-02-11T00:19:53;95919.25;;;0.50;44.94
7335;BME280;3708;42.632;23.378;2023-02-11T00:22:20;95916.44;;;-0.03;45.61
7335;BME280;3708;42.632;23.378;2023-02-11T00:24:47;95916.41;;;0.40;45.27
7335;BME280;3708;42.632;23.378;2023-02-11T00:27:15;95912.31;;;-0.59;46.29
7335;BME280;3708;42.632;23.378;2023-02-11T00:29:42;95911.66;;;0.19;45.57
7335;BME280;3708;42.632;23.378;2023-02-11T00:32:09;95912.50;;;-0.05;45.69
7335;BME280;3708;42.632;23.378;2023-02-11T00:34:36;95909.34;;;0.11;45.49
7335;BME280;3708;42.632;23.378;2023-02-11T00:37:04;95912.03;;;0.59;44.60
7335;BME280;3708;42.632;23.378;2023-02-11T00:39:31;95916.09;;;0.85;44.38
7335;BME280;3708;42.632;23.378;2023-02-11T00:41:58;95913.78;;;0.95;43.64
7335;BME280;3708;42.632;23.378;2023-02-11T00:44:26;95912.84;;;0.89;43.94
7335;BME280;3708;42.632;23.378;2023-02-11T00:46:53;95906.44;;;1.10;43.13
7335;BME280;3708;42.632;23.378;2023-02-11T00:49:20;95905.81;;;1.26;43.32
7335;BME280;3708;42.632;23.378;2023-02-11T00:51:46;95897.94;;;0.91;42.82
7335;BME280;3708;42.632;23.378;2023-02-11T00:54:13;95907.78;;;0.83;43.90
7335;BME280;3708;42.632;23.378;2023-02-11T00:56:40;95912.63;;;0.91;43.55
7335;BME280;3708;42.632;23.378;2023-02-11T00:59:07;95900.59;;;1.03;43.62
7335;BME280;3708;42.632;23.378;2023-02-11T01:01:35;95888.22;;;1.23;43.15
7335;BME280;3708;42.632;23.378;2023-02-11T01:04:02;95891.25;;;1.31;42.83
7335;BME280;3708;42.632;23.378;2023-02-11T01:06:29;95890.31;;;1.26;42.82
7335;BME280;3708;42.632;23.378;2023-02-11T01:08:55;95899.22;;;0.34;43.61
7335;BME280;3708;42.632;23.378;2023-02-11T01:11:22;95889.69;;;0.71;43.99
7335;BME280;3708;42.632;23.378;2023-02-11T01:13:49;95898.09;;;0.96;43.20
7335;BME280;3708;42.632;23.378;2023-02-11T01:16:17;95893.25;;;0.88;43.15
7335;BME280;3708;42.632;23.378;2023-02-11T01:18:46;95889.53;;;1.14;43.16
7335;BME280;3708;42.632;23.378;2023-02-11T01:21:13;95881.47;;;1.22;42.63
7335;BME280;3708;42.632;23.378;2023-02-11T01:23:40;95882.81;;;1.24;41.92
7335;BME280;3708;42.632;23.378;2023-02-11T01:26:07;95876.53;;;1.32;41.82
7335;BME280;3708;42.632;23.378;2023-02-11T01:28:34;95884.59;;;1.24;41.41
7335;BME280;3708;42.632;23.378;2023-02-11T01:31:01;95886.09;;;1.02;41.88
7335;BME280;3708;42.632;23.378;2023-02-11T01:33:29;95890.66;;;1.18;41.64
7335;BME280;3708;42.632;23.378;2023-02-11T01:36:00;95889.94;;;1.11;41.82
7335;BME280;3708;42.632;23.378;2023-02-11T01:38:46;95889.59;;;0.77;42.10
7335;BME280;3708;42.632;23.378;2023-02-11T01:41:14;95880.28;;;0.76;42.00
7335;BME280;3708;42.632;23.378;2023-02-11T01:43:44;95883.88;;;0.39;42.42
7335;BME280;3708;42.632;23.378;2023-02-11T01:46:19;95881.09;;;0.59;42.95
7335;BME280;3708;42.632;23.378;2023-02-11T01:48:51;95879.03;;;0.31;42.54
7335;BME280;3708;42.632;23.378;2023-02-11T01:51:23;95877.53;;;0.24;43.21
7335;BME280;3708;42.632;23.378;2023-02-11T01:53:52;95884.59;;;0.10;43.42
7335;BME280;3708;42.632;23.378;2023-02-11T01:56:40;95882.31;;;0.56;42.81
7335;BME280;3708;42.632;23.378;2023-02-11T01:59:29;95881.88;;;0.59;42.88
7335;BME280;3708;42.632;23.378;2023-02-11T02:02:01;95874.72;;;0.07;43.71
7335;BME280;3708;42.632;23.378;2023-02-11T02:04:38;95868.78;;;0.43;42.92
7335;BME280;3708;42.632;23.378;2023-02-11T02:07:10;95867.28;;;0.53;42.48
7335;BME280;3708;42.632;23.378;2023-02-11T02:09:43;95873.41;;;0.70;42.62
7335;BME280;3708;42.632;23.378;2023-02-11T02:12:12;95870.34;;;0.92;42.63
7335;BME280;3708;42.632;23.378;2023-02-11T02:14:39;95875.19;;;0.88;42.57
7335;BME280;3708;42.632;23.378;2023-02-11T02:17:06;95873.16;;;0.90;42.58
7335;BME280;3708;42.632;23.378;2023-02-11T02:20:02;95881.31;;;0.57;42.29
7335;BME280;3708;42.632;23.378;2023-02-11T02:26:10;95871.25;;;0.67;42.97
7335;BME280;3708;42.632;23.378;2023-02-11T02:29:00;95874.31;;;-0.33;45.07
7335;BME280;3708;42.632;23.378;2023-02-11T02:34:41;95875.75;;;-0.19;44.29
7335;BME280;3708;42.632;23.378;2023-02-11T02:37:16;95870.19;;;-0.40;45.01
7335;BME280;3708;42.632;23.378;2023-02-11T02:39:44;95874.13;;;-0.13;44.31
7335;BME280;3708;42.632;23.378;2023-02-11T02:42:15;95871.50;;;-0.07;44.07
7335;BME280;3708;42.632;23.378;2023-02-11T02:44:47;95869.56;;;0.07;44.37
7335;BME280;3708;42.632;23.378;2023-02-11T02:47:14;95869.06;;;0.17;44.02
7335;BME280;3708;42.632;23.378;2023-02-11T02:49:42;95867.28;;;-0.01;43.80
7335;BME280;3708;42.632;23.378;2023-02-11T02:52:21;95861.69;;;-0.65;45.03
7335;BME280;3708;42.632;23.378;2023-02-11T02:55:19;95871.50;;;-0.31;44.83
7335;BME280;3708;42.632;23.378;2023-02-11T02:58:04;95872.44;;;-0.26;44.82
7335;BME280;3708;42.632;23.378;2023-02-11T03:00:37;95880.75;;;-0.24;44.45
7335;BME280;3708;42.632;23.378;2023-02-11T03:03:16;95884.09;;;-0.23;44.28
7335;BME280;3708;42.632;23.378;2023-02-11T03:05:53;95885.00;;;-0.11;44.22
7335;BME280;3708;42.632;23.378;2023-02-11T03:08:25;95883.41;;;-0.30;44.54
7335;BME280;3708;42.632;23.378;2023-02-11T03:10:54;95881.03;;;-0.56;44.30
7335;BME280;3708;42.632;23.378;2023-02-11T03:13:26;95874.09;;;-0.31;44.25
7335;BME280;3708;42.632;23.378;2023-02-11T03:16:00;95877.19;;;-0.23;43.91
7335;BME280;3708;42.632;23.378;2023-02-11T03:18:31;95879.53;;;-0.21;43.76
7335;BME280;3708;42.632;23.378;2023-02-11T03:21:03;95875.81;;;-0.25;43.98
7335;BME280;3708;42.632;23.378;2023-02-11T03:23:35;95874.72;;;-0.11;43.69
7335;BME280;3708;42.632;23.378;2023-02-11T03:26:08;95867.28;;;-0.26;43.87
7335;BME280;3708;42.632;23.378;2023-02-11T03:28:41;95868.13;;;-0.32;44.24
7335;BME280;3708;42.632;23.378;2023-02-11T03:31:13;95869.13;;;-0.08;43.76
7335;BME280;3708;42.632;23.378;2023-02-11T03:33:49;95856.81;;;-0.06;43.57
7335;BME280;3708;42.632;23.378;2023-02-11T03:36:22;95869.56;;;-0.11;43.71
7335;BME280;3708;42.632;23.378;2023-02-11T03:38:54;95870.81;;;-0.20;43.60
7335;BME280;3708;42.632;23.378;2023-02-11T03:41:23;95874.09;;;-0.31;43.69
7335;BME280;3708;42.632;23.378;2023-02-11T03:43:52;95863.84;;;-0.13;43.22
7335;BME280;3708;42.632;23.378;2023-02-11T03:46:21;95873.59;;;0.21;43.48
7335;BME280;3708;42.632;23.378;2023-02-11T03:48:52;95875.91;;;-0.38;43.77
7335;BME280;3708;42.632;23.378;2023-02-11T03:51:24;95871.13;;;-0.59;43.97
7335;BME280;3708;42.632;23.378;2023-02-11T03:53:54;95867.50;;;-0.27;44.59
7335;BME280;3708;42.632;23.378;2023-02-11T03:56:26;95866.34;;;-0.31;44.22
7335;BME280;3708;42.632;23.378;2023-02-11T03:58:55;95860.44;;;-0.56;44.25
7335;BME280;3708;42.632;23.378;2023-02-11T04:01:22;95858.69;;;-0.62;44.49
7335;BME280;3708;42.632;23.378;2023-02-11T04:03:49;95864.16;;;-0.52;44.44
7335;BME280;3708;42.632;23.378;2023-02-11T04:06:15;95860.09;;;-0.66;44.39
7335;BME280;3708;42.632;23.378;2023-02-11T04:08:44;95870.41;;;-0.66;44.29
7335;BME280;3708;42.632;23.378;2023-02-11T04:11:10;95870.59;;;-0.68;45.01
7335;BME280;3708;42.632;23.378;2023-02-11T04:13:37;95868.84;;;-0.67;44.08
7335;BME280;3708;42.632;23.378;2023-02-11T04:16:04;95869.44;;;-0.72;44.10
7335;BME280;3708;42.632;23.378;2023-02-11T04:18:31;95870.81;;;-0.69;44.41
7335;BME280;3708;42.632;23.378;2023-02-11T04:20:58;95870.47;;;-0.48;44.50
7335;BME280;3708;42.632;23.378;2023-02-11T04:23:25;95869.16;;;-0.57;44.28
7335;BME280;3708;42.632;23.378;2023-02-11T04:25:53;95872.16;;;-0.92;44.43
7335;BME280;3708;42.632;23.378;2023-02-11T04:28:20;95866.03;;;-0.66;44.64
7335;BME280;3708;42.632;23.378;2023-02-11T04:30:48;95859.63;;;-0.32;44.70
7335;BME280;3708;42.632;23.378;2023-02-11T04:33:14;95858.75;;;-0.44;44.38
7335;BME280;3708;42.632;23.378;2023-02-11T04:35:41;95865.53;;;-0.50;43.64
7335;BME280;3708;42.632;23.378;2023-02-11T04:38:08;95861.38;;;-0.26;43.94
7335;BME280;3708;42.632;23.378;2023-02-11T04:40:35;95860.69;;;-0.40;43.81
7335;BME280;3708;42.632;23.378;2023-02-11T04:43:03;95858.47;;;-0.36;43.17
7335;BME280;3708;42.632;23.378;2023-02-11T04:45:30;95851.59;;;-0.42;43.42
7335;BME280;3708;42.632;23.378;2023-02-11T04:47:56;95851.81;;;-0.44;43.63
7335;BME280;3708;42.632;23.378;2023-02-11T04:50:23;95854.16;;;-0.42;43.79
7335;BME280;3708;42.632;23.378;2023-02-11T04:52:50;95854.00;;;-0.47;44.11
7335;BME280;3708;42.632;23.378;2023-02-11T04:55:17;95849.41;;;-0.63;43.68
7335;BME280;3708;42.632;23.378;2023-02-11T04:57:44;95859.88;;;-0.58;43.93
7335;BME280;3708;42.632;23.378;2023-02-11T05:00:18;95850.88;;;-0.74;44.13
7335;BME280;3708;42.632;23.378;2023-02-11T05:03:02;95848.13;;;-0.79;44.11
7335;BME280;3708;42.632;23.378;2023-02-11T05:05:37;95847.00;;;-0.58;44.17
7335;BME280;3708;42.632;23.378;2023-02-11T05:08:04;95835.34;;;-0.61;44.00
7335;BME280;3708;42.632;23.378;2023-02-11T05:10:44;95850.06;;;-0.74;44.16
7335;BME280;3708;42.632;23.378;2023-02-11T05:13:12;95847.63;;;-0.94;44.21
7335;BME280;3708;42.632;23.378;2023-02-11T05:15:40;95849.75;;;-0.85;44.64
7335;BME280;3708;42.632;23.378;2023-02-11T05:18:07;95838.34;;;-0.70;44.05
7335;BME280;3708;42.632;23.378;2023-02-11T05:20:36;95840.44;;;-0.86;44.18
7335;BME280;3708;42.632;23.378;2023-02-11T05:23:03;95834.59;;;-0.99;44.59
7335;BME280;3708;42.632;23.378;2023-02-11T05:25:30;95832.28;;;-1.07;44.19
7335;BME280;3708;42.632;23.378;2023-02-11T05:27:57;95842.88;;;-0.91;44.16
7335;BME280;3708;42.632;23.378;2023-02-11T05:30:24;95837.16;;;-0.99;43.99
7335;BME280;3708;42.632;23.378;2023-02-11T05:32:53;95851.88;;;-1.06;44.25
7335;BME280;3708;42.632;23.378;2023-02-11T05:35:23;95846.19;;;-1.15;44.37
7335;BME280;3708;42.632;23.378;2023-02-11T05:38:07;95834.56;;;-0.93;43.88
7335;BME280;3708;42.632;23.378;2023-02-11T05:40:41;95842.56;;;-1.07;43.84
7335;BME280;3708;42.632;23.378;2023-02-11T05:43:20;95839.81;;;-1.06;43.69
7335;BME280;3708;42.632;23.378;2023-02-11T05:45:46;95835.41;;;-0.99;43.82
7335;BME280;3708;42.632;23.378;2023-02-11T05:48:15;95845.44;;;-0.66;43.78
7335;BME280;3708;42.632;23.378;2023-02-11T05:50:42;95844.16;;;-0.50;43.66
7335;BME280;3708;42.632;23.378;2023-02-11T05:53:09;95848.44;;;-0.44;43.04
7335;BME280;3708;42.632;23.378;2023-02-11T05:55:36;95847.34;;;-0.30;43.04
7335;BME280;3708;42.632;23.378;2023-02-11T05:58:05;95847.97;;;-0.35;43.11
7335;BME280;3708;42.632;23.378;2023-02-11T06:00:32;95845.28;;;-0.46;43.04
7335;BME280;3708;42.632;23.378;2023-02-11T06:02:59;95849.41;;;-0.63;43.14
7335;BME280;3708;42.632;23.378;2023-02-11T06:05:27;95849.31;;;-1.06;43.62
7335;BME280;3708;42.632;23.378;2023-02-11T06:07:54;95855.03;;;-0.80;43.98
7335;BME280;3708;42.632;23.378;2023-02-11T06:10:21;95856.06;;;-0.56;43.71
7335;BME280;3708;42.632;23.378;2023-02-11T06:12:48;95861.00;;;-0.54;43.77
7335;BME280;3708;42.632;23.378;2023-02-11T06:15:16;95856.59;;;-0.47;43.35
7335;BME280;3708;42.632;23.378;2023-02-11T06:17:49;95850.59;;;-0.66;44.09
7335;BME280;3708;42.632;23.378;2023-02-11T06:20:16;95856.63;;;-0.79;44.16
7335;BME280;3708;42.632;23.378;2023-02-11T06:22:48;95861.31;;;-0.69;44.09
7335;BME280;3708;42.632;23.378;2023-02-11T06:25:16;95849.81;;;-0.66;44.11
7335;BME280;3708;42.632;23.378;2023-02-11T06:27:43;95860.50;;;-0.63;44.47
7335;BME280;3708;42.632;23.378;2023-02-11T06:30:11;95864.63;;;-0.37;43.96
7335;BME280;3708;42.632;23.378;2023-02-11T06:33:02;95856.56;;;-0.23;43.99
7335;BME280;3708;42.632;23.378;2023-02-11T06:35:29;95863.44;;;-0.35;44.82
7335;BME280;3708;42.632;23.378;2023-02-11T06:41:02;95857.38;;;-0.22;43.58
7335;BME280;3708;42.632;23.378;2023-02-11T06:43:28;95851.72;;;-0.13;44.63
7335;BME280;3708;42.632;23.378;2023-02-11T06:45:55;95866.84;;;0.02;43.42
7335;BME280;3708;42.632;23.378;2023-02-11T06:48:22;95860.13;;;0.19;43.07
7335;BME280;3708;42.632;23.378;2023-02-11T06:50:49;95858.09;;;-0.15;43.62
7335;BME280;3708;42.632;23.378;2023-02-11T06:53:16;95866.47;;;-0.02;43.90
7335;BME280;3708;42.632;23.378;2023-02-11T06:55:43;95862.78;;;0.13;43.20
7335;BME280;3708;42.632;23.378;2023-02-11T06:58:11;95868.13;;;0.11;43.81
7335;BME280;3708;42.632;23.378;2023-02-11T07:00:38;95875.72;;;0.24;43.44
7335;BME280;3708;42.632;23.378;2023-02-11T07:03:05;95863.41;;;0.44;43.12
7335;BME280;3708;42.632;23.378;2023-02-11T07:05:32;95871.00;;;0.39;43.17
7335;BME280;3708;42.632;23.378;2023-02-11T07:07:59;95869.56;;;0.07;43.89
7335;BME280;3708;42.632;23.378;2023-02-11T07:10:32;95867.00;;;0.25;43.89
7335;BME280;3708;42.632;23.378;2023-02-11T07:12:59;95861.81;;;0.43;43.23
7335;BME280;3708;42.632;23.378;2023-02-11T07:15:33;95871.66;;;-0.26;44.81
7335;BME280;3708;42.632;23.378;2023-02-11T07:18:03;95865.63;;;-0.63;45.75
7335;BME280;3708;42.632;23.378;2023-02-11T07:20:29;95868.94;;;-0.31;44.83
7335;BME280;3708;42.632;23.378;2023-02-11T07:22:56;95867.78;;;-0.35;44.92
7335;BME280;3708;42.632;23.378;2023-02-11T07:25:24;95857.84;;;-0.32;44.99
7335;BME280;3708;42.632;23.378;2023-02-11T07:27:52;95843.97;;;-0.55;44.97
7335;BME280;3708;42.632;23.378;2023-02-11T07:30:18;95848.56;;;-0.82;46.18
7335;BME280;3708;42.632;23.378;2023-02-11T07:32:47;95847.94;;;-0.53;45.79
7335;BME280;3708;42.632;23.378;2023-02-11T07:35:14;95846.41;;;-0.36;45.65
7335;BME280;3708;42.632;23.378;2023-02-11T07:37:41;95850.13;;;-0.32;44.58
7335;BME280;3708;42.632;23.378;2023-02-11T07:40:08;95838.22;;;-0.75;46.15
7335;BME280;3708;42.632;23.378;2023-02-11T07:42:36;95838.25;;;-0.57;45.61
7335;BME280;3708;42.632;23.378;2023-02-11T07:45:06;95831.94;;;-0.86;46.48
7335;BME280;3708;42.632;23.378;2023-02-11T07:47:33;95830.38;;;-0.62;46.26
7335;BME280;3708;42.632;23.378;2023-02-11T07:50:03;95837.59;;;0.15;44.64
7335;BME280;3708;42.632;23.378;2023-02-11T07:52:31;95835.78;;;-0.03;45.01
7335;BME280;3708;42.632;23.378;2023-02-11T07:54:58;95826.91;;;0.29;44.69
7335;BME280;3708;42.632;23.378;2023-02-11T07:57:26;95834.19;;;-0.04;45.35
7335;BME280;3708;42.632;23.378;2023-02-11T07:59:53;95827.91;;;-0.26;45.87
7335;BME280;3708;42.632;23.378;2023-02-11T08:02:20;95824.97;;;0.07;44.94
7335;BME280;3708;42.632;23.378;2023-02-11T08:04:47;95821.09;;;0.82;43.63
7335;BME280;3708;42.632;23.378;2023-02-11T08:07:16;95835.28;;;-0.12;44.00
7335;BME280;3708;42.632;23.378;2023-02-11T08:09:44;95834.06;;;0.09;43.72
7335;BME280;3708;42.632;23.378;2023-02-11T08:12:11;95828.34;;;-0.11;44.11
7335;BME280;3708;42.632;23.378;2023-02-11T08:14:37;95831.44;;;-1.01;45.74
7335;BME280;3708;42.632;23.378;2023-02-11T08:17:04;95820.41;;;-0.10;45.03
7335;BME280;3708;42.632;23.378;2023-02-11T08:19:31;95812.72;;;0.38;43.28
7335;BME280;3708;42.632;23.378;2023-02-11T08:21:58;95814.91;;;0.53;43.44
7335;BME280;3708;42.632;23.378;2023-02-11T08:24:27;95819.66;;;0.38;43.51
7335;BME280;3708;42.632;23.378;2023-02-11T08:26:54;95819.66;;;0.97;42.13
7335;BME280;3708;42.632;23.378;2023-02-11T08:29:21;95821.50;;;1.08;41.96
7335;BME280;3708;42.632;23.378;2023-02-11T08:31:48;95818.44;;;0.40;43.27
7335;BME280;3708;42.632;23.378;2023-02-11T08:34:15;95822.47;;;0.96;42.33
7335;BME280;3708;42.632;23.378;2023-02-11T08:36:44;95825.88;;;0.30;43.72
7335;BME280;3708;42.632;23.378;2023-02-11T08:39:14;95820.75;;;-0.06;44.93
7335;BME280;3708;42.632;23.378;2023-02-11T08:41:44;95822.53;;;0.12;44.16
7335;BME280;3708;42.632;23.378;2023-02-11T08:44:11;95821.31;;;0.14;43.89
7335;BME280;3708;42.632;23.378;2023-02-11T08:46:38;95824.97;;;0.72;43.27
7335;BME280;3708;42.632;23.378;2023-02-11T08:49:05;95817.16;;;1.32;41.68
7335;BME280;3708;42.632;23.378;2023-02-11T08:51:32;95819.28;;;1.12;42.83
7335;BME280;3708;42.632;23.378;2023-02-11T08:53:59;95826.16;;;1.29;41.56
7335;BME280;3708;42.632;23.378;2023-02-11T08:56:26;95825.50;;;0.93;42.30
7335;BME280;3708;42.632;23.378;2023-02-11T08:58:57;95823.47;;;0.65;42.00
7335;BME280;3708;42.632;23.378;2023-02-11T09:01:26;95819.22;;;1.00;42.77
7335;BME280;3708;42.632;23.378;2023-02-11T09:03:54;95826.25;;;1.34;41.59
7335;BME280;3708;42.632;23.378;2023-02-11T09:06:23;95819.66;;;0.86;42.40
7335;BME280;3708;42.632;23.378;2023-02-11T09:08:52;95819.00;;;1.02;41.96
7335;BME280;3708;42.632;23.378;2023-02-11T09:11:25;95818.72;;;1.21;40.95
7335;BME280;3708;42.632;23.378;2023-02-11T09:13:58;95825.97;;;0.71;43.28
7335;BME280;3708;42.632;23.378;2023-02-11T09:16:28;95820.25;;;1.11;42.88
7335;BME280;3708;42.632;23.378;2023-02-11T09:18:56;95808.19;;;0.82;42.93
7335;BME280;3708;42.632;23.378;2023-02-11T09:21:25;95811.13;;;1.49;42.63
7335;BME280;3708;42.632;23.378;2023-02-11T09:23:52;95812.19;;;2.11;41.35
7335;BME280;3708;42.632;23.378;2023-02-11T09:26:24;95819.41;;;2.61;41.05
7335;BME280;3708;42.632;23.378;2023-02-11T09:28:51;95816.50;;;1.94;41.23
7335;BME280;3708;42.632;23.378;2023-02-11T09:31:23;95801.72;;;2.29;40.71
7335;BME280;3708;42.632;23.378;2023-02-11T09:33:53;95806.63;;;2.43;40.61
7335;BME280;3708;42.632;23.378;2023-02-11T09:36:24;95803.72;;;1.41;41.91
7335;BME280;3708;42.632;23.378;2023-02-11T09:38:57;95798.91;;;1.68;41.01
7335;BME280;3708;42.632;23.378;2023-02-11T09:41:36;95791.81;;;2.26;40.69
7335;BME280;3708;42.632;23.378;2023-02-11T09:44:16;95794.09;;;2.11;40.72
7335;BME280;3708;42.632;23.378;2023-02-11T09:46:53;95782.72;;;2.64;40.31
7335;BME280;3708;42.632;23.378;2023-02-11T09:49:23;95782.50;;;1.74;41.35
7335;BME280;3708;42.632;23.378;2023-02-11T09:51:56;95773.66;;;2.50;39.38
7335;BME280;3708;42.632;23.378;2023-02-11T09:54:28;95782.41;;;2.20;40.48
7335;BME280;3708;42.632;23.378;2023-02-11T09:56:57;95767.56;;;2.84;39.11
7335;BME280;3708;42.632;23.378;2023-02-11T09:59:24;95760.47;;;2.35;39.18
7335;BME280;3708;42.632;23.378;2023-02-11T10:01:57;95757.03;;;2.17;40.20
7335;BME280;3708;42.632;23.378;2023-02-11T10:04:42;95756.53;;;2.60;39.10
7335;BME280;3708;42.632;23.378;2023-02-11T10:07:18;95750.69;;;2.98;38.88
7335;BME280;3708;42.632;23.378;2023-02-11T10:10:00;95735.16;;;3.31;38.14
7335;BME280;3708;42.632;23.378;2023-02-11T10:12:43;95733.38;;;2.98;37.95
7335;BME280;3708;42.632;23.378;2023-02-11T10:15:20;95735.81;;;3.05;38.69
7335;BME280;3708;42.632;23.378;2023-02-11T10:18:04;95725.50;;;2.60;39.26
7335;BME280;3708;42.632;23.378;2023-02-11T10:20:36;95730.06;;;2.42;40.05
7335;BME280;3708;42.632;23.378;2023-02-11T10:23:09;95720.91;;;2.51;39.44
7335;BME280;3708;42.632;23.378;2023-02-11T10:25:38;95716.25;;;3.31;38.43
7335;BME280;3708;42.632;23.378;2023-02-11T10:28:12;95702.47;;;3.25;38.24
7335;BME280;3708;42.632;23.378;2023-02-11T10:30:42;95690.53;;;3.24;38.12
7335;BME280;3708;42.632;23.378;2023-02-11T10:33:19;95696.78;;;3.45;38.78
7335;BME280;3708;42.632;23.378;2023-02-11T10:35:48;95678.69;;;4.15;37.04
7335;BME280;3708;42.632;23.378;2023-02-11T10:38:15;95668.88;;;4.70;35.76
7335;BME280;3708;42.632;23.378;2023-02-11T10:40:42;95664.09;;;5.30;34.82
7335;BME280;3708;42.632;23.378;2023-02-11T10:43:12;95671.63;;;3.83;36.09
7335;BME280;3708;42.632;23.378;2023-02-11T10:45:42;95653.59;;;3.50;35.68
7335;BME280;3708;42.632;23.378;2023-02-11T10:48:39;95646.00;;;3.65;35.63
7335;BME280;3708;42.632;23.378;2023-02-11T10:51:14;95639.41;;;4.01;35.31
7335;BME280;3708;42.632;23.378;2023-02-11T10:53:41;95643.28;;;4.52;35.08
7335;BME280;3708;42.632;23.378;2023-02-11T10:56:12;95636.81;;;4.54;33.97
7335;BME280;3708;42.632;23.378;2023-02-11T10:58:43;95632.38;;;5.23;33.42
7335;BME280;3708;42.632;23.378;2023-02-11T11:01:12;95627.28;;;4.07;33.74
7335;BME280;3708;42.632;23.378;2023-02-11T11:03:48;95624.06;;;4.53;33.71
7335;BME280;3708;42.632;23.378;2023-02-11T11:06:28;95622.91;;;4.66;33.14
7335;BME280;3708;42.632;23.378;2023-02-11T11:08:59;95617.69;;;4.34;33.17
7335;BME280;3708;42.632;23.378;2023-02-11T11:11:26;95615.53;;;5.31;32.98
7335;BME280;3708;42.632;23.378;2023-02-11T11:13:56;95612.09;;;5.20;32.59
7335;BME280;3708;42.632;23.378;2023-02-11T11:16:25;95614.06;;;6.22;32.19
7335;BME280;3708;42.632;23.378;2023-02-11T11:19:40;95606.53;;;6.31;31.03
7335;BME280;3708;42.632;23.378;2023-02-11T11:22:19;95614.06;;;5.03;32.55
7335;BME280;3708;42.632;23.378;2023-02-11T11:24:47;95608.47;;;4.80;32.61
7335;BME280;3708;42.632;23.378;2023-02-11T11:27:22;95604.78;;;5.12;32.31
7335;BME280;3708;42.632;23.378;2023-02-11T11:29:53;95610.03;;;4.81;32.59
7335;BME280;3708;42.632;23.378;2023-02-11T11:32:25;95603.59;;;5.92;31.97
7335;BME280;3708;42.632;23.378;2023-02-11T11:35:16;95598.75;;;6.56;31.11
7335;BME280;3708;42.632;23.378;2023-02-11T11:37:52;95602.31;;;4.91;33.08
7335;BME280;3708;42.632;23.378;2023-02-11T11:40:25;95600.69;;;5.26;33.21
7335;BME280;3708;42.632;23.378;2023-02-11T11:43:06;95597.88;;;6.00;31.80
7335;BME280;3708;42.632;23.378;2023-02-11T11:45:52;95593.44;;;5.85;31.90
7335;BME280;3708;42.632;23.378;2023-02-11T11:48:27;95584.16;;;6.35;31.26
7335;BME280;3708;42.632;23.378;2023-02-11T11:51:00;95571.66;;;6.17;30.90
7335;BME280;3708;42.632;23.378;2023-02-11T11:53:33;95583.63;;;6.07;32.32
7335;BME280;3708;42.632;23.378;2023-02-11T11:56:08;95574.00;;;6.43;31.38
7335;BME280;3708;42.632;23.378;2023-02-11T11:58:53;95570.09;;;6.91;30.51
7335;BME280;3708;42.632;23.378;2023-02-11T12:01:28;95568.53;;;6.65;30.24
7335;BME280;3708;42.632;23.378;2023-02-11T12:04:09;95563.03;;;7.02;30.08
7335;BME280;3708;42.632;23.378;2023-02-11T12:07:02;95551.44;;;7.43;29.58
7335;BME280;3708;42.632;23.378;2023-02-11T12:10:26;95553.03;;;7.39;29.96
7335;BME280;3708;42.632;23.378;2023-02-11T12:13:07;95545.34;;;7.67;29.23
7335;BME280;3708;42.632;23.378;2023-02-11T12:16:01;95536.03;;;8.00;28.69
7335;BME280;3708;42.632;23.378;2023-02-11T12:19:02;95543.69;;;7.33;29.82
7335;BME280;3708;42.632;23.378;2023-02-11T12:21:47;95535.00;;;8.01;29.38
7335;BME280;3708;42.632;23.378;2023-02-11T12:24:25;95538.41;;;8.69;28.46
7335;BME280;3708;42.632;23.378;2023-02-11T12:27:01;95530.28;;;7.54;29.62
7335;BME280;3708;42.632;23.378;2023-02-11T12:29:54;95526.50;;;7.22;29.57
7335;BME280;3708;42.632;23.378;2023-02-11T12:32:53;95519.59;;;7.56;30.04
7335;BME280;3708;42.632;23.378;2023-02-11T12:35:32;95509.25;;;8.23;28.75
7335;BME280;3708;42.632;23.378;2023-02-11T12:38:18;95504.16;;;7.64;29.55
7335;BME280;3708;42.632;23.378;2023-02-11T12:40:57;95500.94;;;8.21;28.66
7335;BME280;3708;42.632;23.378;2023-02-11T12:43:33;95500.06;;;8.65;28.54
7335;BME280;3708;42.632;23.378;2023-02-11T12:46:12;95504.31;;;8.56;28.65
7335;BME280;3708;42.632;23.378;2023-02-11T12:49:07;95497.38;;;8.02;28.13
7335;BME280;3708;42.632;23.378;2023-02-11T12:51:54;95498.78;;;7.90;28.44
7335;BME280;3708;42.632;23.378;2023-02-11T12:54:29;95500.81;;;8.94;27.86
7335;BME280;3708;42.632;23.378;2023-02-11T12:57:02;95486.25;;;9.54;26.38
7335;BME280;3708;42.632;23.378;2023-02-11T12:59:42;95482.09;;;9.71;26.46
7335;BME280;3708;42.632;23.378;2023-02-11T13:02:19;95486.69;;;9.79;25.13
7335;BME280;3708;42.632;23.378;2023-02-11T13:04:51;95478.38;;;8.64;26.71
7335;BME280;3708;42.632;23.378;2023-02-11T13:07:32;95480.34;;;8.49;26.35
7335;BME280;3708;42.632;23.378;2023-02-11T13:10:20;95483.19;;;9.04;25.81
7335;BME280;3708;42.632;23.378;2023-02-11T13:13:13;95483.69;;;8.25;27.26
7335;BME280;3708;42.632;23.378;2023-02-11T13:16:16;95471.84;;;9.14;26.57
7335;BME280;3708;42.632;23.378;2023-02-11T13:18:55;95469.59;;;9.87;25.41
7335;BME280;3708;42.632;23.378;2023-02-11T13:21:35;95476.19;;;9.00;25.99
7335;BME280;3708;42.632;23.378;2023-02-11T13:24:18;95476.63;;;8.26;26.32
7335;BME280;3708;42.632;23.378;2023-02-11T13:26:53;95472.47;;;8.20;26.94
7335;BME280;3708;42.632;23.378;2023-02-11T13:29:30;95471.03;;;8.42;26.70
7335;BME280;3708;42.632;23.378;2023-02-11T13:32:08;95465.22;;;8.74;26.43
7335;BME280;3708;42.632;23.378;2023-02-11T13:34:56;95474.81;;;8.26;27.27
7335;BME280;3708;42.632;23.378;2023-02-11T13:37:24;95465.53;;;9.39;26.06
7335;BME280;3708;42.632;23.378;2023-02-11T13:39:59;95467.66;;;8.03;27.23
7335;BME280;3708;42.632;23.378;2023-02-11T13:42:29;95462.84;;;7.82;26.99
7335;BME280;3708;42.632;23.378;2023-02-11T13:44:58;95461.03;;;8.50;26.74
7335;BME280;3708;42.632;23.378;2023-02-11T13:47:28;95456.50;;;8.84;25.88
7335;BME280;3708;42.632;23.378;2023-02-11T13:49:57;95458.88;;;9.83;25.51
7335;BME280;3708;42.632;23.378;2023-02-11T13:52:27;95446.09;;;9.45;25.18